createdAt,value
2018-09-25T00:01:26.083Z,96102.72
2018-09-25T00:03:52.082Z,96093.45
2018-09-25T00:06:18.100Z,96093.05
2018-09-25T00:08:44.086Z,96094.02
2018-09-25T00:11:10.069Z,96091.26
2018-09-25T00:13:36.047Z,96097.34
2018-09-25T00:16:02.035Z,96094.58
2018-09-25T00:18:28.038Z,96099.13
2018-09-25T00:20:54.023Z,96099.33
2018-09-25T00:23:20.013Z,96108.39
2018-09-25T00:25:45.999Z,96105.41
2018-09-25T00:28:11.974Z,96103.06
2018-09-25T00:30:37.985Z,96117.44
2018-09-25T00:33:03.976Z,96114.67
2018-09-25T00:35:29.983Z,96112.48
2018-09-25T00:37:56.008Z,96123.88
2018-09-25T00:40:22.048Z,96125.26
2018-09-25T00:42:48.053Z,96119.11
2018-09-25T00:45:14.052Z,96125.45
2018-09-25T00:47:40.040Z,96131.13
2018-09-25T00:50:06.027Z,96127.55
2018-09-25T00:52:32.034Z,96123.59
2018-09-25T00:54:58.047Z,96137.00
2018-09-25T00:57:24.035Z,96131.07
2018-09-25T00:59:50.049Z,96136.19
2018-09-25T01:02:16.031Z,96141.90
2018-09-25T01:04:42.011Z,96142.47
2018-09-25T01:07:07.992Z,96150.91
2018-09-25T01:09:33.988Z,96143.78
2018-09-25T01:11:59.968Z,96149.88
2018-09-25T01:14:25.950Z,96163.69
2018-09-25T01:16:51.941Z,96154.02
2018-09-25T01:19:17.943Z,96157.59
2018-09-25T01:21:43.940Z,96157.19
2018-09-25T01:24:09.941Z,96159.95
2018-09-25T01:26:35.953Z,96156.38
2018-09-25T01:29:01.930Z,96155.40
2018-09-25T01:31:27.947Z,96154.98
2018-09-25T01:33:53.953Z,96155.17
2018-09-25T01:36:19.969Z,96152.98
2018-09-25T01:38:45.959Z,96155.75
2018-09-25T01:41:11.973Z,96157.53
2018-09-25T01:43:37.967Z,96153.55
2018-09-25T01:46:03.961Z,96163.21
2018-09-25T01:48:29.947Z,96169.55
2018-09-25T01:50:55.936Z,96168.73
2018-09-25T01:53:21.941Z,96169.48
2018-09-25T01:55:47.958Z,96173.00
2018-09-25T01:58:13.971Z,96167.23
2018-09-25T02:00:39.987Z,96173.16
2018-09-25T02:03:06.004Z,96171.16
2018-09-25T02:05:32.017Z,96166.61
2018-09-25T02:07:58.003Z,96173.10
2018-09-25T02:10:24.009Z,96167.17
2018-09-25T02:12:50.034Z,96183.33
2018-09-25T02:15:16.039Z,96176.43
2018-09-25T02:17:42.040Z,96172.22
2018-09-25T02:20:08.049Z,96175.39
2018-09-25T02:22:34.038Z,96173.60
2018-09-25T02:25:00.041Z,96170.84
2018-09-25T02:27:26.051Z,96175.73
2018-09-25T02:29:52.027Z,96179.47
2018-09-25T02:32:18.042Z,96177.69
2018-09-25T02:34:44.044Z,96176.30
2018-09-25T02:37:10.031Z,96183.20
2018-09-25T02:39:36.027Z,96185.97
2018-09-25T02:42:02.050Z,96187.34
2018-09-25T02:44:28.038Z,96189.33
2018-09-25T02:46:54.044Z,96200.38
2018-09-25T02:49:20.027Z,96194.25
2018-09-25T02:51:46.045Z,96194.03
2018-09-25T02:54:12.046Z,96186.72
2018-09-25T02:56:38.065Z,96193.62
2018-09-25T02:59:04.075Z,96194.59
2018-09-25T03:01:30.095Z,96194.78
2018-09-25T03:03:56.083Z,96191.42
2018-09-25T03:06:22.135Z,96202.25
2018-09-25T03:08:48.114Z,96199.08
2018-09-25T03:11:14.105Z,96198.45
2018-09-25T03:13:40.092Z,96192.11
2018-09-25T03:16:06.104Z,96200.56
2018-09-25T03:18:32.082Z,96198.80
2018-09-25T03:20:58.096Z,96204.89
2018-09-25T03:23:24.078Z,96205.45
2018-09-25T03:25:50.064Z,96206.02
2018-09-25T03:28:16.082Z,96212.55
2018-09-25T03:30:42.069Z,96215.86
2018-09-25T03:33:08.051Z,96210.91
2018-09-25T03:35:34.032Z,96210.50
2018-09-25T03:38:00.044Z,96214.23
2018-09-25T03:40:26.038Z,96219.38
2018-09-25T03:42:52.155Z,96217.59
2018-09-25T03:45:18.164Z,96216.36
2018-09-25T03:47:44.166Z,96226.59
2018-09-25T03:50:10.175Z,96222.86
2018-09-25T03:52:36.192Z,96224.24
2018-09-25T03:55:02.197Z,96223.83
2018-09-25T03:57:28.225Z,96228.38
2018-09-25T03:59:54.310Z,96227.66
2018-09-25T04:02:20.316Z,96226.28
2018-09-25T04:04:46.329Z,96224.31
2018-09-25T04:07:12.316Z,96232.18
2018-09-25T04:09:38.333Z,96230.64
2018-09-25T04:12:04.337Z,96238.11
2018-09-25T04:14:30.328Z,96249.56
2018-09-25T04:16:56.339Z,96248.59
2018-09-25T04:19:22.359Z,96248.81
2018-09-25T04:21:48.366Z,96257.35
2018-09-25T04:24:14.433Z,96245.74
2018-09-25T04:26:40.399Z,96249.48
2018-09-25T04:29:06.396Z,96254.75
2018-09-25T04:31:32.402Z,96261.91
2018-09-25T04:33:58.415Z,96269.94
2018-09-25T04:36:24.408Z,96272.35
2018-09-25T04:38:50.395Z,96273.02
2018-09-25T04:41:16.433Z,96277.16
2018-09-25T04:43:42.424Z,96280.48
2018-09-25T04:46:08.412Z,96280.33
2018-09-25T04:48:34.718Z,96281.86
2018-09-25T04:51:00.850Z,96285.44
2018-09-25T04:53:26.831Z,96284.13
2018-09-25T04:55:52.808Z,96279.57
2018-09-25T04:58:18.847Z,96274.87
2018-09-25T05:00:44.823Z,96283.16
2018-09-25T05:03:10.848Z,96283.88
2018-09-25T05:05:36.910Z,96281.05
2018-09-25T05:08:02.974Z,96290.30
2018-09-25T05:10:28.970Z,96290.48
2018-09-25T05:12:55.020Z,96293.81
2018-09-25T05:15:21.099Z,96290.64
2018-09-25T05:17:47.120Z,96287.66
2018-09-25T05:20:13.175Z,96291.80
2018-09-25T05:22:39.219Z,96288.63
2018-09-25T05:25:05.268Z,96291.17
2018-09-25T05:27:31.274Z,96296.44
2018-09-25T05:29:57.262Z,96299.39
2018-09-25T05:32:23.248Z,96293.20
2018-09-25T05:34:49.282Z,96308.58
2018-09-25T05:37:15.299Z,96305.00
2018-09-25T05:39:41.329Z,96299.41
2018-09-25T05:42:07.346Z,96297.39
2018-09-25T05:44:33.393Z,96290.65
2018-09-25T05:46:59.374Z,96292.44
2018-09-25T05:49:25.388Z,96295.42
2018-09-25T05:51:51.381Z,96300.94
2018-09-25T05:54:17.437Z,96295.20
2018-09-25T05:56:43.447Z,96302.51
2018-09-25T05:59:09.438Z,96298.37
2018-09-25T06:01:35.429Z,96305.42
2018-09-25T06:04:01.418Z,96302.10
2018-09-25T06:06:27.404Z,96303.23
2018-09-25T06:08:53.418Z,96305.98
2018-09-25T06:11:19.404Z,96296.73
2018-09-25T06:13:45.414Z,96297.55
2018-09-25T06:16:11.429Z,96295.13
2018-09-25T06:18:37.500Z,96300.66
2018-09-25T06:21:03.507Z,96293.75
2018-09-25T06:23:29.518Z,96292.64
2018-09-25T06:25:55.560Z,96297.44
2018-09-25T06:28:21.544Z,96302.73
2018-09-25T06:30:47.529Z,96301.28
2018-09-25T06:33:13.713Z,96302.19
2018-09-25T06:35:39.784Z,96304.31
2018-09-25T06:38:05.768Z,96306.23
2018-09-25T06:40:31.778Z,96308.58
2018-09-25T06:42:57.796Z,96306.56
2018-09-25T06:45:23.873Z,96305.75
2018-09-25T06:47:49.897Z,96311.20
2018-09-25T06:50:15.883Z,96311.77
2018-09-25T06:52:41.892Z,96313.73
2018-09-25T06:55:07.971Z,96313.89
2018-09-25T06:57:33.912Z,96318.98
2018-09-25T06:59:59.927Z,96313.98
2018-09-25T07:02:25.924Z,96304.38
2018-09-25T07:04:51.933Z,96303.64
2018-09-25T07:07:17.933Z,96309.00
2018-09-25T07:09:44.095Z,96309.63
2018-09-25T07:12:09.998Z,96311.42
2018-09-25T07:14:35.984Z,96313.62
2018-09-25T07:17:01.996Z,96318.39
2018-09-25T07:19:28.004Z,96319.21
2018-09-25T07:21:53.997Z,96317.98
2018-09-25T07:24:19.982Z,96312.69
2018-09-25T07:26:46.006Z,96309.36
2018-09-25T07:29:12.019Z,96319.44
2018-09-25T07:31:38.015Z,96275.20
2018-09-25T07:34:04.061Z,96317.01
2018-09-25T07:36:30.055Z,96319.99
2018-09-25T07:38:56.080Z,96326.34
2018-09-25T07:41:22.089Z,96325.17
2018-09-25T07:43:48.072Z,96330.32
2018-09-25T07:46:14.086Z,96332.67
2018-09-25T07:48:40.076Z,96339.23
2018-09-25T07:51:06.085Z,96344.75
2018-09-25T07:53:32.083Z,96336.75
2018-09-25T07:55:58.059Z,96334.97
2018-09-25T07:58:24.066Z,96331.23
2018-09-25T08:00:50.103Z,96332.12
2018-09-25T08:03:16.093Z,96335.52
2018-09-25T08:05:42.049Z,96336.75
2018-09-25T08:08:08.050Z,96334.95
2018-09-25T08:10:34.041Z,96330.06
2018-09-25T08:13:00.025Z,96327.87
2018-09-25T08:15:26.073Z,96339.25
2018-09-25T08:17:52.036Z,96329.02
2018-09-25T08:20:18.084Z,96330.90
2018-09-25T08:22:44.028Z,96328.33
2018-09-25T08:25:10.083Z,96324.34
2018-09-25T08:27:36.069Z,96328.33
2018-09-25T08:30:02.062Z,96327.98
2018-09-25T08:32:28.074Z,96332.76
2018-09-25T08:34:54.148Z,96330.81
2018-09-25T08:37:20.103Z,96323.91
2018-09-25T08:39:46.103Z,96324.73
2018-09-25T08:42:12.092Z,96326.11
2018-09-25T08:44:38.158Z,96327.87
2018-09-25T08:47:04.180Z,96316.83
2018-09-25T08:49:30.189Z,96320.41
2018-09-25T08:51:56.190Z,96325.77
2018-09-25T08:54:22.203Z,96325.30
2018-09-25T08:56:48.218Z,96328.28
2018-09-25T08:59:14.199Z,96325.11
2018-09-25T09:01:40.211Z,96322.94
2018-09-25T09:04:06.224Z,96319.36
2018-09-25T09:06:32.270Z,96322.69
2018-09-25T09:08:58.224Z,96332.53
2018-09-25T09:11:24.214Z,96337.65
2018-09-25T09:13:50.214Z,96329.92
2018-09-25T09:16:16.230Z,96322.80
2018-09-25T09:18:42.216Z,96331.65
2018-09-25T09:21:08.329Z,96327.09
2018-09-25T09:23:34.318Z,96337.17
2018-09-25T09:26:00.330Z,96336.95
2018-09-25T09:28:26.336Z,96343.44
2018-09-25T09:30:52.324Z,96342.62
2018-09-25T09:33:18.333Z,96341.23
2018-09-25T09:35:44.361Z,96338.48
2018-09-25T09:38:10.384Z,96339.60
2018-09-25T09:40:36.420Z,96331.32
2018-09-25T09:43:02.376Z,96328.19
2018-09-25T09:45:28.373Z,96335.65
2018-09-25T09:47:54.400Z,96333.83
2018-09-25T09:50:20.360Z,96323.23
2018-09-25T09:52:46.341Z,96323.04
2018-09-25T09:55:12.314Z,96324.17
2018-09-25T09:57:38.309Z,96324.05
2018-09-25T10:00:04.295Z,96322.25
2018-09-25T10:02:30.308Z,96320.47
2018-09-25T10:04:56.318Z,96317.27
2018-09-25T10:07:22.325Z,96331.06
2018-09-25T10:09:48.334Z,96323.64
2018-09-25T10:12:14.347Z,96323.23
2018-09-25T10:14:40.361Z,96329.56
2018-09-25T10:17:06.373Z,96322.66
2018-09-25T10:19:32.424Z,96319.31
2018-09-25T10:21:58.430Z,96320.13
2018-09-25T10:24:24.445Z,96316.95
2018-09-25T10:26:50.446Z,96310.31
2018-09-25T10:29:16.449Z,96318.59
2018-09-25T10:31:42.440Z,96300.06
2018-09-25T10:34:08.569Z,96309.34
2018-09-25T10:36:34.484Z,96309.72
2018-09-25T10:39:00.496Z,96303.82
2018-09-25T10:41:26.477Z,96301.28
2018-09-25T10:43:52.508Z,96286.66
2018-09-25T10:46:18.501Z,96303.41
2018-09-25T10:48:44.506Z,96304.80
2018-09-25T10:51:10.608Z,96302.81
2018-09-25T10:53:36.603Z,96301.84
2018-09-25T10:56:02.748Z,96298.52
2018-09-25T10:58:28.667Z,96289.83
2018-09-25T11:00:54.665Z,96293.00
2018-09-25T11:03:20.743Z,96287.48
2018-09-25T11:05:46.664Z,96288.05
2018-09-25T11:08:12.674Z,96287.64
2018-09-25T11:10:38.661Z,96277.41
2018-09-25T11:13:04.650Z,96273.75
2018-09-25T11:15:30.656Z,96280.87
2018-09-25T11:17:56.640Z,96273.66
2018-09-25T11:20:22.623Z,96268.77
2018-09-25T11:22:48.604Z,96263.41
2018-09-25T11:25:14.645Z,96257.73
2018-09-25T11:27:40.655Z,96265.04
2018-09-25T11:30:06.645Z,96260.70
2018-09-25T11:32:32.657Z,96268.20
2018-09-25T11:34:58.650Z,96253.66
2018-09-25T11:37:24.665Z,96247.16
2018-09-25T11:39:50.650Z,96248.61
2018-09-25T11:42:16.671Z,96249.58
2018-09-25T11:44:42.677Z,96247.63
2018-09-25T11:47:08.705Z,96253.53
2018-09-25T11:49:34.659Z,96246.88
2018-09-25T11:52:00.731Z,96243.49
2018-09-25T11:54:26.732Z,96236.41
2018-09-25T11:56:52.741Z,96235.02
2018-09-25T11:59:18.731Z,96234.87
2018-09-25T12:01:44.721Z,96239.42
2018-09-25T12:04:10.778Z,96237.72
2018-09-25T12:06:36.758Z,96230.81
2018-09-25T12:09:02.740Z,96245.19
2018-09-25T12:11:28.763Z,96240.67
2018-09-25T12:13:54.860Z,96240.00
2018-09-25T12:16:20.767Z,96242.36
2018-09-25T12:18:46.752Z,96235.64
2018-09-25T12:21:12.735Z,96232.25
2018-09-25T12:23:38.743Z,96234.13
2018-09-25T12:26:04.744Z,96238.77
2018-09-25T12:28:30.746Z,96238.95
2018-09-25T12:30:56.749Z,96231.58
2018-09-25T12:33:22.790Z,96234.62
2018-09-25T12:35:48.766Z,96239.35
2018-09-25T12:38:14.808Z,96234.95
2018-09-25T12:40:40.850Z,96232.13
2018-09-25T12:43:06.810Z,96236.05
2018-09-25T12:45:32.811Z,96236.05
2018-09-25T12:47:58.817Z,96228.89
2018-09-25T12:50:24.818Z,96232.66
2018-09-25T12:52:50.826Z,96227.30
2018-09-25T12:55:16.843Z,96227.08
2018-09-25T12:57:42.845Z,96227.23
2018-09-25T13:00:08.858Z,96220.26
2018-09-25T13:02:34.978Z,96222.80
2018-09-25T13:05:01.003Z,96218.81
2018-09-25T13:07:27.009Z,96219.38
2018-09-25T13:09:53.007Z,96227.02
2018-09-25T13:12:19.032Z,96232.95
2018-09-25T13:14:45.022Z,96227.02
2018-09-25T13:17:11.030Z,96224.42
2018-09-25T13:19:37.042Z,96226.21
2018-09-25T13:22:03.035Z,96228.81
2018-09-25T13:24:29.049Z,96222.73
2018-09-25T13:26:55.084Z,96217.37
2018-09-25T13:29:21.135Z,96214.45
2018-09-25T13:31:47.174Z,96215.90
2018-09-25T13:34:13.155Z,96213.52
2018-09-25T13:36:39.165Z,96218.25
2018-09-25T13:39:05.177Z,96213.14
2018-09-25T13:41:31.224Z,96219.29
2018-09-25T13:43:57.273Z,96227.00
2018-09-25T13:46:23.260Z,96228.13
2018-09-25T13:48:49.259Z,96228.54
2018-09-25T13:51:15.266Z,96232.68
2018-09-25T13:53:41.276Z,96227.57
2018-09-25T13:56:07.311Z,96236.00
2018-09-25T13:58:33.304Z,96233.02
2018-09-25T14:00:59.306Z,96232.41
2018-09-25T14:03:25.364Z,96228.83
2018-09-25T14:05:51.316Z,96227.57
2018-09-25T14:08:17.313Z,96229.58
2018-09-25T14:10:43.321Z,96231.19
2018-09-25T14:13:09.326Z,96233.31
2018-09-25T14:15:35.316Z,96226.34
2018-09-25T14:18:01.330Z,96231.45
2018-09-25T14:20:27.344Z,96228.47
2018-09-25T14:22:53.353Z,96229.19
2018-09-25T14:25:19.420Z,96236.69
2018-09-25T14:27:45.434Z,96233.92
2018-09-25T14:30:11.465Z,96226.95
2018-09-25T14:32:37.544Z,96234.42
2018-09-25T14:35:03.548Z,96230.44
2018-09-25T14:37:29.546Z,96235.17
2018-09-25T14:39:55.542Z,96233.13
2018-09-25T14:42:21.550Z,96238.83
2018-09-25T14:44:47.568Z,96244.50
2018-09-25T14:47:13.576Z,96244.09
2018-09-25T14:49:39.590Z,96242.64
2018-09-25T14:52:05.599Z,96251.52
2018-09-25T14:54:31.636Z,96254.84
2018-09-25T14:56:57.622Z,96253.20
2018-09-25T14:59:23.642Z,96255.58
2018-09-25T15:01:49.670Z,96264.02
2018-09-25T15:04:15.704Z,96266.70
2018-09-25T15:06:41.714Z,96265.88
2018-09-25T15:09:07.717Z,96265.47
2018-09-25T15:11:33.720Z,96263.88
2018-09-25T15:13:59.729Z,96266.78
2018-09-25T15:16:25.744Z,96264.61
2018-09-25T15:18:51.746Z,96269.16
2018-09-25T15:21:17.812Z,96279.94
2018-09-25T15:23:43.769Z,96276.77
2018-09-25T15:26:09.786Z,96285.64
2018-09-25T15:28:35.781Z,96288.96
2018-09-25T15:31:01.796Z,96289.30
2018-09-25T15:33:27.959Z,96292.95
2018-09-25T15:35:54.041Z,96301.38
2018-09-25T15:38:20.033Z,96300.27
2018-09-25T15:40:46.153Z,96304.55
2018-09-25T15:43:12.175Z,96310.33
2018-09-25T15:45:38.151Z,96313.30
2018-09-25T15:48:04.248Z,96312.97
2018-09-25T15:50:30.226Z,96311.92
2018-09-25T15:52:56.272Z,96322.44
2018-09-25T15:55:22.323Z,96328.92
2018-09-25T15:57:48.331Z,96327.39
2018-09-25T16:00:14.390Z,96340.84
2018-09-25T16:02:40.363Z,96341.95
2018-09-25T16:05:06.394Z,96334.98
2018-09-25T16:07:32.519Z,96342.14
2018-09-25T16:09:58.505Z,96337.93
2018-09-25T16:12:24.737Z,96335.81
2018-09-25T16:14:50.740Z,96343.71
2018-09-25T16:17:16.740Z,96352.96
2018-09-25T16:19:42.773Z,96351.17
2018-09-25T16:22:08.774Z,96359.19
2018-09-25T16:24:34.789Z,96369.92
2018-09-25T16:27:00.829Z,96372.83
2018-09-25T16:29:26.841Z,96375.36
2018-09-25T16:31:52.847Z,96382.56
2018-09-25T16:34:18.857Z,96390.84
2018-09-25T16:36:44.868Z,96385.84
2018-09-25T16:39:10.880Z,96384.77
2018-09-25T16:41:36.948Z,96398.14
2018-09-25T16:44:03.018Z,96404.70
2018-09-25T16:46:29.018Z,96411.19
2018-09-25T16:48:55.021Z,96414.20
2018-09-25T16:51:21.039Z,96421.81
2018-09-25T16:53:53.148Z,96411.52
2018-09-25T16:56:19.821Z,96415.03
2018-09-25T16:58:46.666Z,96417.38
2018-09-25T17:01:12.666Z,96431.17
2018-09-25T17:03:38.683Z,96434.56
2018-09-25T17:06:04.765Z,96434.90
2018-09-25T17:08:30.738Z,96438.22
2018-09-25T17:10:56.794Z,96440.27
2018-09-25T17:13:22.836Z,96439.45
2018-09-25T17:15:48.843Z,96444.14
2018-09-25T17:18:14.838Z,96446.27
2018-09-25T17:20:40.843Z,96455.10
2018-09-25T17:23:06.884Z,96467.92
2018-09-25T17:25:35.905Z,96474.41
2018-09-25T17:28:02.648Z,96475.45
2018-09-25T17:30:29.394Z,96481.80
2018-09-25T17:32:56.439Z,96482.02
2018-09-25T17:35:23.283Z,96474.90
2018-09-25T17:37:49.354Z,96475.53
2018-09-25T17:40:15.392Z,96478.30
2018-09-25T17:42:41.448Z,96482.61
2018-09-25T17:45:07.531Z,96489.59
2018-09-25T17:47:33.534Z,96497.27
2018-09-25T17:49:59.692Z,96503.37
2018-09-25T17:52:29.416Z,96499.73
2018-09-25T17:55:01.637Z,96496.07
2018-09-25T17:57:27.662Z,96491.30
2018-09-25T17:59:53.666Z,96498.52
2018-09-25T18:02:19.684Z,96507.28
2018-09-25T18:04:45.726Z,96510.78
2018-09-25T18:07:11.782Z,96514.25
2018-09-25T18:09:37.848Z,96516.03
2018-09-25T18:12:03.860Z,96515.48
2018-09-25T18:14:29.870Z,96515.89
2018-09-25T18:16:55.886Z,96518.09
2018-09-25T18:19:21.930Z,96528.79
2018-09-25T18:21:47.921Z,96540.37
2018-09-25T18:24:13.945Z,96542.17
2018-09-25T18:26:39.961Z,96546.72
2018-09-25T18:29:06.007Z,96545.83
2018-09-25T18:31:32.002Z,96541.28
2018-09-25T18:33:58.488Z,96545.41
2018-09-25T18:36:24.487Z,96550.67
2018-09-25T18:38:50.489Z,96560.92
2018-09-25T18:41:16.571Z,96559.28
2018-09-25T18:43:42.673Z,96557.41
2018-09-25T18:46:08.639Z,96560.91
2018-09-25T18:48:34.669Z,96563.44
2018-09-25T18:51:01.885Z,96558.63
2018-09-25T18:53:28.064Z,96570.41
2018-09-25T18:55:54.045Z,96571.55
2018-09-25T18:58:20.034Z,96567.98
2018-09-25T19:00:46.065Z,96566.19
2018-09-25T19:03:12.069Z,96565.55
2018-09-25T19:05:38.352Z,96570.25
2018-09-25T19:08:04.374Z,96569.84
2018-09-25T19:10:30.386Z,96575.43
2018-09-25T19:12:56.400Z,96576.40
2018-09-25T19:15:22.429Z,96578.83
2018-09-25T19:17:48.416Z,96586.13
2018-09-25T19:20:14.405Z,96588.74
2018-09-25T19:22:40.421Z,96591.32
2018-09-25T19:25:06.405Z,96601.64
2018-09-25T19:27:32.422Z,96602.44
2018-09-25T19:29:58.451Z,96598.30
2018-09-25T19:32:24.437Z,96601.46
2018-09-25T19:34:50.482Z,96608.21
2018-09-25T19:37:16.490Z,96606.50
2018-09-25T19:39:42.502Z,96606.83
2018-09-25T19:42:08.499Z,96606.27
2018-09-25T19:44:34.535Z,96610.41
2018-09-25T19:47:00.561Z,96611.38
2018-09-25T19:49:26.542Z,96609.82
2018-09-25T19:51:52.600Z,96612.98
2018-09-25T19:54:18.602Z,96618.77
2018-09-25T19:56:44.596Z,96628.56
2018-09-25T19:59:10.602Z,96628.64
2018-09-25T20:01:36.845Z,96626.53
2018-09-25T20:04:02.835Z,96635.95
2018-09-25T20:06:29.342Z,96631.56
2018-09-25T20:08:55.335Z,96639.05
2018-09-25T20:11:21.529Z,96644.15
2018-09-25T20:13:47.535Z,96646.23
2018-09-25T20:16:13.545Z,96647.38
2018-09-25T20:18:39.535Z,96639.26
2018-09-25T20:21:05.695Z,96638.80
2018-09-25T20:23:31.863Z,96641.14
2018-09-25T20:25:57.893Z,96645.43
2018-09-25T20:28:23.876Z,96646.95
2018-09-25T20:30:49.890Z,96650.72
2018-09-25T20:33:15.924Z,96658.72
2018-09-25T20:35:41.917Z,96653.39
2018-09-25T20:38:07.925Z,96654.92
2018-09-25T20:40:33.936Z,96661.81
2018-09-25T20:42:59.932Z,96662.95
2018-09-25T20:45:25.942Z,96667.80
2018-09-25T20:47:51.985Z,96669.59
2018-09-25T20:50:17.990Z,96665.78
2018-09-25T20:52:43.997Z,96663.02
2018-09-25T20:55:10.017Z,96662.79
2018-09-25T20:57:36.036Z,96662.37
2018-09-25T21:00:02.040Z,96660.73
2018-09-25T21:02:28.042Z,96665.28
2018-09-25T21:04:54.127Z,96661.88
2018-09-25T21:07:20.141Z,96658.72
2018-09-25T21:09:46.150Z,96657.89
2018-09-25T21:12:12.196Z,96657.63
2018-09-25T21:14:38.149Z,96659.42
2018-09-25T21:17:04.159Z,96655.84
2018-09-25T21:19:30.207Z,96655.61
2018-09-25T21:21:56.217Z,96659.48
2018-09-25T21:24:22.222Z,96658.67
2018-09-25T21:26:48.252Z,96650.02
2018-09-25T21:29:14.233Z,96651.95
2018-09-25T21:31:40.246Z,96650.16
2018-09-25T21:34:06.243Z,96649.34
2018-09-25T21:36:32.254Z,96653.66
2018-09-25T21:38:58.294Z,96650.48
2018-09-25T21:41:24.250Z,96656.56
2018-09-25T21:43:50.256Z,96654.77
2018-09-25T21:46:16.265Z,96658.50
2018-09-25T21:48:42.261Z,96653.16
2018-09-25T21:51:08.366Z,96647.39
2018-09-25T21:53:34.275Z,96647.39
2018-09-25T21:56:00.264Z,96648.94
2018-09-25T21:58:26.247Z,96645.78
2018-09-25T22:00:52.237Z,96651.03
2018-09-25T22:03:18.243Z,96648.86
2018-09-25T22:05:44.238Z,96650.80
2018-09-25T22:08:10.223Z,96649.97
2018-09-25T22:10:36.233Z,96653.14
2018-09-25T22:13:02.218Z,96653.70
2018-09-25T22:15:28.203Z,96654.29
2018-09-25T22:17:54.222Z,96660.36
2018-09-25T22:20:20.208Z,96662.88
2018-09-25T22:22:46.215Z,96654.03
2018-09-25T22:25:12.225Z,96653.61
2018-09-25T22:27:38.245Z,96652.83
2018-09-25T22:30:04.252Z,96653.38
2018-09-25T22:32:30.234Z,96652.00
2018-09-25T22:34:56.220Z,96658.89
2018-09-25T22:37:22.230Z,96655.31
2018-09-25T22:39:48.244Z,96646.81
2018-09-25T22:42:14.254Z,96648.34
2018-09-25T22:44:40.238Z,96653.86
2018-09-25T22:47:06.252Z,96653.45
2018-09-25T22:49:32.262Z,96658.58
2018-09-25T22:51:58.247Z,96652.66
2018-09-25T22:54:24.224Z,96662.86
2018-09-25T22:56:50.269Z,96661.08
2018-09-25T22:59:16.273Z,96659.28
2018-09-25T23:01:42.283Z,96662.04
2018-09-25T23:04:08.282Z,96669.11
2018-09-25T23:06:34.268Z,96670.48
2018-09-25T23:09:00.279Z,96669.66
2018-09-25T23:11:26.263Z,96667.47
2018-09-25T23:13:52.275Z,96678.67
2018-09-25T23:16:18.264Z,96673.16
2018-09-25T23:18:44.254Z,96669.58
2018-09-25T23:21:10.267Z,96669.17
2018-09-25T23:23:36.285Z,96669.31
2018-09-25T23:26:02.300Z,96661.05
2018-09-25T23:28:28.358Z,96663.42
2018-09-25T23:30:54.361Z,96662.20
2018-09-25T23:33:20.408Z,96660.81
2018-09-25T23:35:46.408Z,96664.13
2018-09-25T23:38:12.397Z,96661.38
2018-09-25T23:40:38.478Z,96670.23
2018-09-25T23:43:04.490Z,96663.48
2018-09-25T23:45:30.491Z,96663.48
2018-09-25T23:47:56.484Z,96666.80
2018-09-25T23:50:22.500Z,96666.80
2018-09-25T23:52:48.481Z,96669.55
2018-09-25T23:55:14.498Z,96672.90
2018-09-25T23:57:40.512Z,96674.83
